sensor_id;sensor_type;location;lat;lon;timestamp;P1;durP1;ratioP1;P2;durP2;ratioP2
53533;SDS011;39421;53.204;6.568;2023-12-20T00:01:11;12.57;;;2.10;;
53533;SDS011;39421;53.204;6.568;2023-12-20T00:03:37;10.55;;;2.00;;
53533;SDS011;39421;53.204;6.568;2023-12-20T00:06:04;11.48;;;2.20;;
53533;SDS011;39421;53.204;6.568;2023-12-20T00:08:30;13.68;;;2.60;;
53533;SDS011;39421;53.204;6.568;2023-12-20T00:10:56;13.43;;;2.23;;
53533;SDS011;39421;53.204;6.568;2023-12-20T00:13:22;10.98;;;2.00;;
53533;SDS011;39421;53.204;6.568;2023-12-20T00:15:48;10.77;;;2.30;;
53533;SDS011;39421;53.204;6.568;2023-12-20T00:18:14;14.43;;;2.30;;
53533;SDS011;39421;53.204;6.568;2023-12-20T00:20:40;12.13;;;2.25;;
53533;SDS011;39421;53.204;6.568;2023-12-20T00:23:06;10.52;;;2.13;;
53533;SDS011;39421;53.204;6.568;2023-12-20T00:25:33;11.55;;;2.08;;
53533;SDS011;39421;53.204;6.568;2023-12-20T00:28:00;11.07;;;2.10;;
53533;SDS011;39421;53.204;6.568;2023-12-20T00:30:27;13.43;;;2.45;;
53533;SDS011;39421;53.204;6.568;2023-12-20T00:32:53;14.48;;;2.63;;
53533;SDS011;39421;53.204;6.568;2023-12-20T00:35:20;12.85;;;2.47;;
53533;SDS011;39421;53.204;6.568;2023-12-20T00:37:46;12.50;;;2.35;;
53533;SDS011;39421;53.204;6.568;2023-12-20T00:40:12;12.65;;;2.20;;
53533;SDS011;39421;53.204;6.568;2023-12-20T00:42:38;13.68;;;2.40;;
53533;SDS011;39421;53.204;6.568;2023-12-20T00:45:04;12.55;;;2.17;;
53533;SDS011;39421;53.204;6.568;2023-12-20T00:47:31;10.63;;;1.88;;
53533;SDS011;39421;53.204;6.568;2023-12-20T00:49:57;12.75;;;2.40;;
53533;SDS011;39421;53.204;6.568;2023-12-20T00:52:24;12.63;;;1.90;;
53533;SDS011;39421;53.204;6.568;2023-12-20T00:54:50;15.02;;;2.30;;
53533;SDS011;39421;53.204;6.568;2023-12-20T00:57:17;12.90;;;2.40;;
53533;SDS011;39421;53.204;6.568;2023-12-20T00:59:43;14.63;;;2.33;;
53533;SDS011;39421;53.204;6.568;2023-12-20T01:02:09;15.18;;;2.63;;
53533;SDS011;39421;53.204;6.568;2023-12-20T01:04:35;10.82;;;2.00;;
53533;SDS011;39421;53.204;6.568;2023-12-20T01:07:02;11.10;;;2.10;;
53533;SDS011;39421;53.204;6.568;2023-12-20T01:09:28;13.05;;;2.33;;
53533;SDS011;39421;53.204;6.568;2023-12-20T01:11:54;12.00;;;2.40;;
53533;SDS011;39421;53.204;6.568;2023-12-20T01:14:20;11.80;;;2.40;;
53533;SDS011;39421;53.204;6.568;2023-12-20T01:16:46;10.82;;;2.20;;
53533;SDS011;39421;53.204;6.568;2023-12-20T01:19:13;12.85;;;2.50;;
53533;SDS011;39421;53.204;6.568;2023-12-20T01:21:40;13.55;;;2.42;;
53533;SDS011;39421;53.204;6.568;2023-12-20T01:24:06;14.38;;;2.53;;
53533;SDS011;39421;53.204;6.568;2023-12-20T01:26:32;12.85;;;2.50;;
53533;SDS011;39421;53.204;6.568;2023-12-20T01:28:58;13.05;;;2.45;;
53533;SDS011;39421;53.204;6.568;2023-12-20T01:31:24;14.98;;;2.53;;
53533;SDS011;39421;53.204;6.568;2023-12-20T01:33:52;14.27;;;2.63;;
53533;SDS011;39421;53.204;6.568;2023-12-20T01:36:18;14.90;;;3.10;;
53533;SDS011;39421;53.204;6.568;2023-12-20T01:38:44;16.27;;;2.70;;
53533;SDS011;39421;53.204;6.568;2023-12-20T01:41:11;13.05;;;2.35;;
53533;SDS011;39421;53.204;6.568;2023-12-20T01:43:37;14.40;;;2.75;;
53533;SDS011;39421;53.204;6.568;2023-12-20T01:46:03;14.85;;;2.67;;
53533;SDS011;39421;53.204;6.568;2023-12-20T01:48:30;15.37;;;3.17;;
53533;SDS011;39421;53.204;6.568;2023-12-20T01:50:59;13.02;;;2.72;;
53533;SDS011;39421;53.204;6.568;2023-12-20T01:53:26;13.45;;;2.70;;
53533;SDS011;39421;53.204;6.568;2023-12-20T01:55:54;15.03;;;2.70;;
53533;SDS011;39421;53.204;6.568;2023-12-20T01:58:20;13.18;;;2.55;;
53533;SDS011;39421;53.204;6.568;2023-12-20T02:00:47;12.30;;;2.40;;
53533;SDS011;39421;53.204;6.568;2023-12-20T02:03:13;9.68;;;2.00;;
53533;SDS011;39421;53.204;6.568;2023-12-20T02:05:39;12.77;;;2.30;;
53533;SDS011;39421;53.204;6.568;2023-12-20T02:08:06;9.88;;;2.30;;
53533;SDS011;39421;53.204;6.568;2023-12-20T02:10:32;13.40;;;2.37;;
53533;SDS011;39421;53.204;6.568;2023-12-20T02:12:58;13.48;;;2.60;;
53533;SDS011;39421;53.204;6.568;2023-12-20T02:15:24;12.98;;;2.50;;
53533;SDS011;39421;53.204;6.568;2023-12-20T02:17:51;13.20;;;2.45;;
53533;SDS011;39421;53.204;6.568;2023-12-20T02:20:17;12.07;;;2.50;;
53533;SDS011;39421;53.204;6.568;2023-12-20T02:22:43;12.38;;;2.20;;
53533;SDS011;39421;53.204;6.568;2023-12-20T02:25:09;15.02;;;2.45;;
53533;SDS011;39421;53.204;6.568;2023-12-20T02:27:36;12.40;;;2.50;;
53533;SDS011;39421;53.204;6.568;2023-12-20T02:30:02;13.23;;;2.75;;
53533;SDS011;39421;53.204;6.568;2023-12-20T02:32:28;13.82;;;2.30;;
53533;SDS011;39421;53.204;6.568;2023-12-20T02:34:55;15.82;;;2.88;;
53533;SDS011;39421;53.204;6.568;2023-12-20T02:37:21;16.98;;;2.83;;
53533;SDS011;39421;53.204;6.568;2023-12-20T02:39:47;17.23;;;3.00;;
53533;SDS011;39421;53.204;6.568;2023-12-20T02:42:14;16.48;;;2.88;;
53533;SDS011;39421;53.204;6.568;2023-12-20T02:44:40;15.93;;;2.88;;
53533;SDS011;39421;53.204;6.568;2023-12-20T02:47:06;15.95;;;3.08;;
53533;SDS011;39421;53.204;6.568;2023-12-20T02:49:32;19.02;;;3.47;;
53533;SDS011;39421;53.204;6.568;2023-12-20T02:51:58;17.60;;;3.28;;
53533;SDS011;39421;53.204;6.568;2023-12-20T02:54:24;16.63;;;3.40;;
53533;SDS011;39421;53.204;6.568;2023-12-20T02:56:50;17.67;;;3.47;;
53533;SDS011;39421;53.204;6.568;2023-12-20T02:59:16;19.85;;;3.30;;
53533;SDS011;39421;53.204;6.568;2023-12-20T03:01:44;20.90;;;3.70;;
53533;SDS011;39421;53.204;6.568;2023-12-20T03:04:11;18.63;;;4.03;;
53533;SDS011;39421;53.204;6.568;2023-12-20T03:06:37;19.20;;;3.83;;
53533;SDS011;39421;53.204;6.568;2023-12-20T03:09:04;16.65;;;3.25;;
53533;SDS011;39421;53.204;6.568;2023-12-20T03:11:30;18.15;;;3.45;;
53533;SDS011;39421;53.204;6.568;2023-12-20T03:13:56;18.70;;;3.40;;
53533;SDS011;39421;53.204;6.568;2023-12-20T03:16:22;18.63;;;3.67;;
53533;SDS011;39421;53.204;6.568;2023-12-20T03:18:48;21.10;;;4.30;;
53533;SDS011;39421;53.204;6.568;2023-12-20T03:21:15;20.73;;;3.83;;
53533;SDS011;39421;53.204;6.568;2023-12-20T03:23:41;17.38;;;3.40;;
53533;SDS011;39421;53.204;6.568;2023-12-20T03:26:07;18.58;;;3.75;;
53533;SDS011;39421;53.204;6.568;2023-12-20T03:28:33;17.00;;;3.53;;
53533;SDS011;39421;53.204;6.568;2023-12-20T03:30:59;17.83;;;3.73;;
53533;SDS011;39421;53.204;6.568;2023-12-20T03:33:27;18.30;;;3.35;;
53533;SDS011;39421;53.204;6.568;2023-12-20T03:35:53;16.90;;;3.03;;
53533;SDS011;39421;53.204;6.568;2023-12-20T03:38:20;15.95;;;3.50;;
53533;SDS011;39421;53.204;6.568;2023-12-20T03:40:46;16.38;;;3.00;;
53533;SDS011;39421;53.204;6.568;2023-12-20T03:43:12;19.55;;;3.50;;
53533;SDS011;39421;53.204;6.568;2023-12-20T03:45:38;20.00;;;3.70;;
53533;SDS011;39421;53.204;6.568;2023-12-20T03:48:05;21.90;;;3.80;;
53533;SDS011;39421;53.204;6.568;2023-12-20T03:50:31;20.20;;;3.83;;
53533;SDS011;39421;53.204;6.568;2023-12-20T03:52:57;20.13;;;3.58;;
53533;SDS011;39421;53.204;6.568;2023-12-20T03:55:23;17.60;;;3.72;;
53533;SDS011;39421;53.204;6.568;2023-12-20T03:57:49;22.40;;;3.83;;
53533;SDS011;39421;53.204;6.568;2023-12-20T04:00:15;19.77;;;3.75;;
53533;SDS011;39421;53.204;6.568;2023-12-20T04:02:41;20.08;;;3.83;;
53533;SDS011;39421;53.204;6.568;2023-12-20T04:05:08;18.67;;;3.72;;
53533;SDS011;39421;53.204;6.568;2023-12-20T04:07:35;23.48;;;3.97;;
53533;SDS011;39421;53.204;6.568;2023-12-20T04:10:01;20.25;;;3.88;;
53533;SDS011;39421;53.204;6.568;2023-12-20T04:12:28;20.13;;;3.85;;
53533;SDS011;39421;53.204;6.568;2023-12-20T04:14:55;16.92;;;3.50;;
53533;SDS011;39421;53.204;6.568;2023-12-20T04:17:21;19.33;;;3.53;;
53533;SDS011;39421;53.204;6.568;2023-12-20T04:19:50;23.88;;;4.35;;
53533;SDS011;39421;53.204;6.568;2023-12-20T04:22:19;18.30;;;3.65;;
53533;SDS011;39421;53.204;6.568;2023-12-20T04:24:45;19.90;;;3.92;;
53533;SDS011;39421;53.204;6.568;2023-12-20T04:27:11;22.27;;;4.03;;
53533;SDS011;39421;53.204;6.568;2023-12-20T04:29:37;20.95;;;3.78;;
53533;SDS011;39421;53.204;6.568;2023-12-20T04:32:04;17.47;;;3.40;;
53533;SDS011;39421;53.204;6.568;2023-12-20T04:34:30;19.02;;;3.97;;
53533;SDS011;39421;53.204;6.568;2023-12-20T04:36:56;17.20;;;3.78;;
53533;SDS011;39421;53.204;6.568;2023-12-20T04:39:22;19.63;;;3.78;;
53533;SDS011;39421;53.204;6.568;2023-12-20T04:41:48;18.17;;;3.42;;
53533;SDS011;39421;53.204;6.568;2023-12-20T04:44:15;17.92;;;3.72;;
53533;SDS011;39421;53.204;6.568;2023-12-20T04:46:41;19.80;;;3.77;;
53533;SDS011;39421;53.204;6.568;2023-12-20T04:49:07;19.05;;;3.65;;
53533;SDS011;39421;53.204;6.568;2023-12-20T04:51:34;18.42;;;3.88;;
53533;SDS011;39421;53.204;6.568;2023-12-20T04:54:00;20.52;;;3.72;;
53533;SDS011;39421;53.204;6.568;2023-12-20T04:56:26;24.73;;;4.45;;
53533;SDS011;39421;53.204;6.568;2023-12-20T04:58:52;19.90;;;3.80;;
53533;SDS011;39421;53.204;6.568;2023-12-20T05:01:19;19.33;;;3.90;;
53533;SDS011;39421;53.204;6.568;2023-12-20T05:03:45;19.42;;;3.90;;
53533;SDS011;39421;53.204;6.568;2023-12-20T05:06:11;17.97;;;3.80;;
53533;SDS011;39421;53.204;6.568;2023-12-20T05:08:38;18.00;;;3.42;;
53533;SDS011;39421;53.204;6.568;2023-12-20T05:11:04;21.38;;;3.70;;
53533;SDS011;39421;53.204;6.568;2023-12-20T05:13:30;19.10;;;3.80;;
53533;SDS011;39421;53.204;6.568;2023-12-20T05:15:56;22.45;;;4.45;;
53533;SDS011;39421;53.204;6.568;2023-12-20T05:18:22;21.50;;;4.07;;
53533;SDS011;39421;53.204;6.568;2023-12-20T05:20:51;24.67;;;4.80;;
53533;SDS011;39421;53.204;6.568;2023-12-20T05:23:18;20.53;;;4.27;;
53533;SDS011;39421;53.204;6.568;2023-12-20T05:25:45;19.30;;;4.00;;
53533;SDS011;39421;53.204;6.568;2023-12-20T05:28:11;19.65;;;4.15;;
53533;SDS011;39421;53.204;6.568;2023-12-20T05:30:37;18.52;;;3.88;;
53533;SDS011;39421;53.204;6.568;2023-12-20T05:33:03;20.80;;;4.00;;
53533;SDS011;39421;53.204;6.568;2023-12-20T05:35:30;20.25;;;3.90;;
53533;SDS011;39421;53.204;6.568;2023-12-20T05:37:56;18.65;;;3.70;;
53533;SDS011;39421;53.204;6.568;2023-12-20T05:40:22;18.45;;;3.88;;
53533;SDS011;39421;53.204;6.568;2023-12-20T05:42:48;22.83;;;4.05;;
53533;SDS011;39421;53.204;6.568;2023-12-20T05:45:14;21.15;;;3.88;;
53533;SDS011;39421;53.204;6.568;2023-12-20T05:47:41;22.15;;;4.10;;
53533;SDS011;39421;53.204;6.568;2023-12-20T05:50:07;20.48;;;4.20;;
53533;SDS011;39421;53.204;6.568;2023-12-20T05:52:34;22.30;;;4.00;;
53533;SDS011;39421;53.204;6.568;2023-12-20T05:55:00;22.42;;;4.20;;
53533;SDS011;39421;53.204;6.568;2023-12-20T05:57:26;20.73;;;3.83;;
53533;SDS011;39421;53.204;6.568;2023-12-20T05:59:52;18.63;;;4.22;;
53533;SDS011;39421;53.204;6.568;2023-12-20T06:02:19;21.43;;;4.37;;
53533;SDS011;39421;53.204;6.568;2023-12-20T06:04:45;18.45;;;3.95;;
53533;SDS011;39421;53.204;6.568;2023-12-20T06:07:11;20.70;;;4.20;;
53533;SDS011;39421;53.204;6.568;2023-12-20T06:09:38;20.52;;;3.90;;
53533;SDS011;39421;53.204;6.568;2023-12-20T06:12:04;22.48;;;4.05;;
53533;SDS011;39421;53.204;6.568;2023-12-20T06:14:30;18.08;;;3.85;;
53533;SDS011;39421;53.204;6.568;2023-12-20T06:16:57;20.87;;;4.33;;
53533;SDS011;39421;53.204;6.568;2023-12-20T06:19:23;21.20;;;4.47;;
53533;SDS011;39421;53.204;6.568;2023-12-20T06:21:49;22.38;;;4.20;;
53533;SDS011;39421;53.204;6.568;2023-12-20T06:24:15;21.80;;;4.57;;
53533;SDS011;39421;53.204;6.568;2023-12-20T06:26:42;19.00;;;4.38;;
53533;SDS011;39421;53.204;6.568;2023-12-20T06:29:08;21.88;;;4.07;;
53533;SDS011;39421;53.204;6.568;2023-12-20T06:31:34;19.17;;;3.60;;
53533;SDS011;39421;53.204;6.568;2023-12-20T06:34:00;20.03;;;4.17;;
53533;SDS011;39421;53.204;6.568;2023-12-20T06:36:27;18.80;;;3.72;;
53533;SDS011;39421;53.204;6.568;2023-12-20T06:38:53;22.02;;;3.97;;
53533;SDS011;39421;53.204;6.568;2023-12-20T06:41:19;18.02;;;3.65;;
53533;SDS011;39421;53.204;6.568;2023-12-20T06:43:45;22.05;;;4.03;;
53533;SDS011;39421;53.204;6.568;2023-12-20T06:46:12;22.50;;;3.80;;
53533;SDS011;39421;53.204;6.568;2023-12-20T06:48:38;21.43;;;3.90;;
53533;SDS011;39421;53.204;6.568;2023-12-20T06:51:05;20.30;;;3.83;;
53533;SDS011;39421;53.204;6.568;2023-12-20T06:53:31;21.92;;;4.28;;
53533;SDS011;39421;53.204;6.568;2023-12-20T06:55:58;19.90;;;3.83;;
53533;SDS011;39421;53.204;6.568;2023-12-20T06:58:24;23.02;;;4.22;;
53533;SDS011;39421;53.204;6.568;2023-12-20T07:00:50;18.35;;;4.10;;
53533;SDS011;39421;53.204;6.568;2023-12-20T07:03:17;17.90;;;3.83;;
53533;SDS011;39421;53.204;6.568;2023-12-20T07:05:43;23.70;;;4.10;;
53533;SDS011;39421;53.204;6.568;2023-12-20T07:08:09;19.58;;;3.97;;
53533;SDS011;39421;53.204;6.568;2023-12-20T07:10:36;20.20;;;4.35;;
53533;SDS011;39421;53.204;6.568;2023-12-20T07:13:02;21.10;;;4.30;;
53533;SDS011;39421;53.204;6.568;2023-12-20T07:15:28;19.30;;;4.25;;
53533;SDS011;39421;53.204;6.568;2023-12-20T07:17:54;23.88;;;4.38;;
53533;SDS011;39421;53.204;6.568;2023-12-20T07:20:21;17.40;;;3.92;;
53533;SDS011;39421;53.204;6.568;2023-12-20T07:22:47;19.30;;;3.72;;
53533;SDS011;39421;53.204;6.568;2023-12-20T07:25:13;19.90;;;3.97;;
53533;SDS011;39421;53.204;6.568;2023-12-20T07:27:39;18.45;;;3.97;;
53533;SDS011;39421;53.204;6.568;2023-12-20T07:30:06;22.63;;;4.30;;
53533;SDS011;39421;53.204;6.568;2023-12-20T07:32:32;19.25;;;4.30;;
53533;SDS011;39421;53.204;6.568;2023-12-20T07:34:59;18.70;;;4.03;;
53533;SDS011;39421;53.204;6.568;2023-12-20T07:37:25;18.00;;;3.65;;
53533;SDS011;39421;53.204;6.568;2023-12-20T07:39:51;21.02;;;4.55;;
53533;SDS011;39421;53.204;6.568;2023-12-20T07:42:17;17.00;;;3.88;;
53533;SDS011;39421;53.204;6.568;2023-12-20T07:44:43;21.35;;;4.20;;
53533;SDS011;39421;53.204;6.568;2023-12-20T07:47:09;20.17;;;3.95;;
53533;SDS011;39421;53.204;6.568;2023-12-20T07:49:37;24.50;;;4.13;;
53533;SDS011;39421;53.204;6.568;2023-12-20T07:52:03;20.67;;;4.13;;
53533;SDS011;39421;53.204;6.568;2023-12-20T07:54:29;20.38;;;4.03;;
53533;SDS011;39421;53.204;6.568;2023-12-20T07:56:55;18.70;;;3.97;;
53533;SDS011;39421;53.204;6.568;2023-12-20T07:59:21;18.45;;;3.88;;
53533;SDS011;39421;53.204;6.568;2023-12-20T08:01:47;20.42;;;4.15;;
53533;SDS011;39421;53.204;6.568;2023-12-20T08:04:13;19.70;;;3.95;;
53533;SDS011;39421;53.204;6.568;2023-12-20T08:06:40;17.55;;;3.47;;
53533;SDS011;39421;53.204;6.568;2023-12-20T08:09:06;17.17;;;3.73;;
53533;SDS011;39421;53.204;6.568;2023-12-20T08:11:32;15.50;;;3.88;;
53533;SDS011;39421;53.204;6.568;2023-12-20T08:13:58;19.52;;;3.63;;
53533;SDS011;39421;53.204;6.568;2023-12-20T08:16:24;18.63;;;3.80;;
53533;SDS011;39421;53.204;6.568;2023-12-20T08:18:50;16.23;;;3.50;;
53533;SDS011;39421;53.204;6.568;2023-12-20T08:21:17;17.30;;;3.90;;
53533;SDS011;39421;53.204;6.568;2023-12-20T08:23:45;19.20;;;3.80;;
53533;SDS011;39421;53.204;6.568;2023-12-20T08:26:12;18.38;;;4.00;;
53533;SDS011;39421;53.204;6.568;2023-12-20T08:28:38;14.25;;;3.47;;
53533;SDS011;39421;53.204;6.568;2023-12-20T08:31:05;17.48;;;3.40;;
53533;SDS011;39421;53.204;6.568;2023-12-20T08:33:31;18.50;;;3.88;;
53533;SDS011;39421;53.204;6.568;2023-12-20T08:35:57;17.70;;;3.50;;
53533;SDS011;39421;53.204;6.568;2023-12-20T08:38:23;16.02;;;3.28;;
53533;SDS011;39421;53.204;6.568;2023-12-20T08:40:49;16.80;;;3.35;;
53533;SDS011;39421;53.204;6.568;2023-12-20T08:43:15;18.13;;;3.53;;
53533;SDS011;39421;53.204;6.568;2023-12-20T08:45:41;10.10;;;2.15;;
53533;SDS011;39421;53.204;6.568;2023-12-20T08:48:07;7.32;;;1.40;;
53533;SDS011;39421;53.204;6.568;2023-12-20T08:50:34;8.20;;;1.30;;
53533;SDS011;39421;53.204;6.568;2023-12-20T08:53:00;9.47;;;1.63;;
53533;SDS011;39421;53.204;6.568;2023-12-20T08:55:26;5.47;;;1.25;;
53533;SDS011;39421;53.204;6.568;2023-12-20T08:57:54;7.32;;;1.63;;
53533;SDS011;39421;53.204;6.568;2023-12-20T09:00:20;7.82;;;1.20;;
53533;SDS011;39421;53.204;6.568;2023-12-20T09:02:49;7.30;;;1.30;;
53533;SDS011;39421;53.204;6.568;2023-12-20T09:05:15;9.32;;;1.60;;
53533;SDS011;39421;53.204;6.568;2023-12-20T09:07:41;9.45;;;1.70;;
53533;SDS011;39421;53.204;6.568;2023-12-20T09:10:08;9.27;;;1.77;;
53533;SDS011;39421;53.204;6.568;2023-12-20T09:12:34;10.48;;;1.67;;
53533;SDS011;39421;53.204;6.568;2023-12-20T09:15:03;11.88;;;2.22;;
53533;SDS011;39421;53.204;6.568;2023-12-20T09:17:29;10.45;;;1.88;;
53533;SDS011;39421;53.204;6.568;2023-12-20T09:19:55;13.27;;;2.45;;
53533;SDS011;39421;53.204;6.568;2023-12-20T09:22:21;12.10;;;1.90;;
53533;SDS011;39421;53.204;6.568;2023-12-20T09:24:48;10.38;;;1.70;;
53533;SDS011;39421;53.204;6.568;2023-12-20T09:27:14;9.43;;;1.70;;
53533;SDS011;39421;53.204;6.568;2023-12-20T09:29:40;8.10;;;1.70;;
53533;SDS011;39421;53.204;6.568;2023-12-20T09:32:07;10.25;;;2.17;;
53533;SDS011;39421;53.204;6.568;2023-12-20T09:34:33;9.57;;;2.20;;
53533;SDS011;39421;53.204;6.568;2023-12-20T09:36:59;8.85;;;2.65;;
53533;SDS011;39421;53.204;6.568;2023-12-20T09:39:25;9.77;;;2.80;;
53533;SDS011;39421;53.204;6.568;2023-12-20T09:41:58;11.38;;;2.80;;
53533;SDS011;39421;53.204;6.568;2023-12-20T09:44:26;8.85;;;2.30;;
53533;SDS011;39421;53.204;6.568;2023-12-20T09:46:52;8.88;;;2.10;;
53533;SDS011;39421;53.204;6.568;2023-12-20T09:49:18;9.68;;;2.60;;
53533;SDS011;39421;53.204;6.568;2023-12-20T09:51:46;9.05;;;2.45;;
53533;SDS011;39421;53.204;6.568;2023-12-20T09:54:16;9.33;;;2.50;;
53533;SDS011;39421;53.204;6.568;2023-12-20T09:56:42;9.57;;;2.45;;
53533;SDS011;39421;53.204;6.568;2023-12-20T09:59:08;11.38;;;2.47;;
53533;SDS011;39421;53.204;6.568;2023-12-20T10:01:35;11.57;;;2.47;;
53533;SDS011;39421;53.204;6.568;2023-12-20T10:04:03;9.98;;;2.30;;
53533;SDS011;39421;53.204;6.568;2023-12-20T10:06:37;8.98;;;2.45;;
53533;SDS011;39421;53.204;6.568;2023-12-20T10:09:03;10.10;;;2.90;;
53533;SDS011;39421;53.204;6.568;2023-12-20T10:11:29;12.45;;;2.95;;
53533;SDS011;39421;53.204;6.568;2023-12-20T10:13:59;12.80;;;3.10;;
53533;SDS011;39421;53.204;6.568;2023-12-20T10:16:28;11.10;;;2.80;;
53533;SDS011;39421;53.204;6.568;2023-12-20T10:18:54;11.48;;;3.20;;
53533;SDS011;39421;53.204;6.568;2023-12-20T10:21:21;11.07;;;2.33;;
53533;SDS011;39421;53.204;6.568;2023-12-20T10:23:48;10.25;;;2.50;;
53533;SDS011;39421;53.204;6.568;2023-12-20T10:26:20;10.90;;;2.20;;
53533;SDS011;39421;53.204;6.568;2023-12-20T10:28:49;8.82;;;1.67;;
53533;SDS011;39421;53.204;6.568;2023-12-20T10:31:32;10.00;;;1.85;;
53533;SDS011;39421;53.204;6.568;2023-12-20T10:34:00;9.43;;;1.77;;
53533;SDS011;39421;53.204;6.568;2023-12-20T10:36:28;10.00;;;1.55;;
53533;SDS011;39421;53.204;6.568;2023-12-20T10:38:55;9.90;;;1.73;;
53533;SDS011;39421;53.204;6.568;2023-12-20T10:41:26;9.70;;;1.90;;
53533;SDS011;39421;53.204;6.568;2023-12-20T10:43:56;12.10;;;2.40;;
53533;SDS011;39421;53.204;6.568;2023-12-20T10:46:24;10.90;;;2.35;;
53533;SDS011;39421;53.204;6.568;2023-12-20T10:48:51;11.23;;;2.58;;
53533;SDS011;39421;53.204;6.568;2023-12-20T10:51:19;11.25;;;2.60;;
53533;SDS011;39421;53.204;6.568;2023-12-20T10:53:49;11.80;;;2.77;;
53533;SDS011;39421;53.204;6.568;2023-12-20T10:56:16;13.07;;;2.50;;
53533;SDS011;39421;53.204;6.568;2023-12-20T10:58:46;11.07;;;2.28;;
53533;SDS011;39421;53.204;6.568;2023-12-20T11:01:13;12.70;;;2.40;;
53533;SDS011;39421;53.204;6.568;2023-12-20T11:03:49;11.80;;;2.20;;
53533;SDS011;39421;53.204;6.568;2023-12-20T11:08:47;13.43;;;2.63;;
53533;SDS011;39421;53.204;6.568;2023-12-20T11:11:30;11.38;;;2.08;;
53533;SDS011;39421;53.204;6.568;2023-12-20T11:14:00;12.05;;;2.40;;
53533;SDS011;39421;53.204;6.568;2023-12-20T11:16:27;13.43;;;2.70;;
53533;SDS011;39421;53.204;6.568;2023-12-20T11:18:53;11.13;;;2.17;;
53533;SDS011;39421;53.204;6.568;2023-12-20T11:21:20;15.37;;;2.80;;
53533;SDS011;39421;53.204;6.568;2023-12-20T11:23:46;14.13;;;2.37;;
53533;SDS011;39421;53.204;6.568;2023-12-20T11:26:15;11.13;;;2.10;;
53533;SDS011;39421;53.204;6.568;2023-12-20T11:28:42;12.30;;;2.50;;
53533;SDS011;39421;53.204;6.568;2023-12-20T11:31:08;12.88;;;2.50;;
53533;SDS011;39421;53.204;6.568;2023-12-20T11:33:36;13.15;;;2.70;;
53533;SDS011;39421;53.204;6.568;2023-12-20T11:36:03;13.95;;;2.45;;
53533;SDS011;39421;53.204;6.568;2023-12-20T11:38:36;14.33;;;2.73;;
53533;SDS011;39421;53.204;6.568;2023-12-20T11:41:05;14.05;;;2.70;;
53533;SDS011;39421;53.204;6.568;2023-12-20T11:46:02;13.37;;;2.70;;
53533;SDS011;39421;53.204;6.568;2023-12-20T11:48:29;16.00;;;3.13;;
53533;SDS011;39421;53.204;6.568;2023-12-20T11:50:59;13.52;;;3.33;;
53533;SDS011;39421;53.204;6.568;2023-12-20T11:53:25;14.25;;;2.60;;
53533;SDS011;39421;53.204;6.568;2023-12-20T11:55:51;14.88;;;3.20;;
53533;SDS011;39421;53.204;6.568;2023-12-20T11:58:17;14.27;;;2.60;;
53533;SDS011;39421;53.204;6.568;2023-12-20T12:00:43;16.05;;;2.60;;
53533;SDS011;39421;53.204;6.568;2023-12-20T12:03:10;15.02;;;2.60;;
53533;SDS011;39421;53.204;6.568;2023-12-20T12:05:36;14.45;;;2.63;;
53533;SDS011;39421;53.204;6.568;2023-12-20T12:08:02;14.07;;;2.60;;
53533;SDS011;39421;53.204;6.568;2023-12-20T12:10:29;15.57;;;2.80;;
53533;SDS011;39421;53.204;6.568;2023-12-20T12:12:55;15.18;;;3.08;;
53533;SDS011;39421;53.204;6.568;2023-12-20T12:15:21;14.60;;;2.88;;
53533;SDS011;39421;53.204;6.568;2023-12-20T12:17:54;14.38;;;2.80;;
53533;SDS011;39421;53.204;6.568;2023-12-20T12:20:24;13.57;;;3.03;;
53533;SDS011;39421;53.204;6.568;2023-12-20T12:22:57;15.52;;;2.70;;
53533;SDS011;39421;53.204;6.568;2023-12-20T12:25:24;11.23;;;2.50;;
53533;SDS011;39421;53.204;6.568;2023-12-20T12:27:50;13.23;;;2.80;;
53533;SDS011;39421;53.204;6.568;2023-12-20T12:30:17;14.60;;;2.50;;
53533;SDS011;39421;53.204;6.568;2023-12-20T12:32:44;11.18;;;2.38;;
53533;SDS011;39421;53.204;6.568;2023-12-20T12:35:10;15.40;;;2.38;;
53533;SDS011;39421;53.204;6.568;2023-12-20T12:37:40;12.35;;;2.53;;
53533;SDS011;39421;53.204;6.568;2023-12-20T12:40:24;11.43;;;2.20;;
53533;SDS011;39421;53.204;6.568;2023-12-20T12:42:50;13.77;;;2.30;;
53533;SDS011;39421;53.204;6.568;2023-12-20T12:45:17;14.48;;;2.53;;
53533;SDS011;39421;53.204;6.568;2023-12-20T12:47:45;12.38;;;2.22;;
53533;SDS011;39421;53.204;6.568;2023-12-20T12:50:11;11.90;;;2.60;;
53533;SDS011;39421;53.204;6.568;2023-12-20T12:52:37;13.57;;;2.55;;
53533;SDS011;39421;53.204;6.568;2023-12-20T12:55:03;11.88;;;1.92;;
53533;SDS011;39421;53.204;6.568;2023-12-20T12:57:29;12.82;;;2.22;;
53533;SDS011;39421;53.204;6.568;2023-12-20T12:59:56;12.15;;;2.50;;
53533;SDS011;39421;53.204;6.568;2023-12-20T13:02:23;12.18;;;2.25;;
53533;SDS011;39421;53.204;6.568;2023-12-20T13:04:49;13.07;;;2.92;;
53533;SDS011;39421;53.204;6.568;2023-12-20T13:07:16;12.98;;;2.15;;
53533;SDS011;39421;53.204;6.568;2023-12-20T13:09:42;16.02;;;5.80;;
53533;SDS011;39421;53.204;6.568;2023-12-20T13:12:08;11.45;;;2.40;;
53533;SDS011;39421;53.204;6.568;2023-12-20T13:14:35;11.38;;;2.10;;
53533;SDS011;39421;53.204;6.568;2023-12-20T13:17:04;11.18;;;2.45;;
53533;SDS011;39421;53.204;6.568;2023-12-20T13:19:31;11.98;;;2.63;;
53533;SDS011;39421;53.204;6.568;2023-12-20T13:22:00;16.60;;;3.20;;
53533;SDS011;39421;53.204;6.568;2023-12-20T13:24:26;13.13;;;2.30;;
53533;SDS011;39421;53.204;6.568;2023-12-20T13:26:52;14.27;;;2.50;;
53533;SDS011;39421;53.204;6.568;2023-12-20T13:29:18;15.00;;;2.53;;
53533;SDS011;39421;53.204;6.568;2023-12-20T13:31:44;13.10;;;2.33;;
53533;SDS011;39421;53.204;6.568;2023-12-20T13:34:11;13.90;;;2.57;;
53533;SDS011;39421;53.204;6.568;2023-12-20T13:36:37;10.98;;;2.20;;
53533;SDS011;39421;53.204;6.568;2023-12-20T13:39:04;14.60;;;2.40;;
53533;SDS011;39421;53.204;6.568;2023-12-20T13:41:30;11.25;;;2.17;;
53533;SDS011;39421;53.204;6.568;2023-12-20T13:43:57;12.23;;;2.47;;
53533;SDS011;39421;53.204;6.568;2023-12-20T13:46:23;12.38;;;2.15;;
53533;SDS011;39421;53.204;6.568;2023-12-20T13:48:49;11.18;;;2.20;;
53533;SDS011;39421;53.204;6.568;2023-12-20T13:51:15;10.00;;;2.10;;
53533;SDS011;39421;53.204;6.568;2023-12-20T13:53:41;14.23;;;2.42;;
53533;SDS011;39421;53.204;6.568;2023-12-20T13:56:08;11.30;;;2.05;;
53533;SDS011;39421;53.204;6.568;2023-12-20T13:58:34;9.02;;;1.75;;
53533;SDS011;39421;53.204;6.568;2023-12-20T14:01:00;10.93;;;2.15;;
53533;SDS011;39421;53.204;6.568;2023-12-20T14:03:26;11.47;;;2.30;;
53533;SDS011;39421;53.204;6.568;2023-12-20T14:05:52;11.68;;;2.10;;
53533;SDS011;39421;53.204;6.568;2023-12-20T14:08:18;9.27;;;1.67;;
53533;SDS011;39421;53.204;6.568;2023-12-20T14:10:45;8.05;;;1.85;;
53533;SDS011;39421;53.204;6.568;2023-12-20T14:13:11;9.13;;;1.60;;
53533;SDS011;39421;53.204;6.568;2023-12-20T14:15:37;9.00;;;1.60;;
53533;SDS011;39421;53.204;6.568;2023-12-20T14:18:04;8.50;;;1.50;;
53533;SDS011;39421;53.204;6.568;2023-12-20T14:20:31;9.53;;;1.80;;
53533;SDS011;39421;53.204;6.568;2023-12-20T14:23:00;9.15;;;1.75;;
53533;SDS011;39421;53.204;6.568;2023-12-20T14:25:26;7.68;;;1.60;;
53533;SDS011;39421;53.204;6.568;2023-12-20T14:27:52;8.43;;;1.50;;
53533;SDS011;39421;53.204;6.568;2023-12-20T14:30:18;8.48;;;1.50;;
53533;SDS011;39421;53.204;6.568;2023-12-20T14:32:44;7.37;;;1.60;;
53533;SDS011;39421;53.204;6.568;2023-12-20T14:35:12;7.25;;;1.40;;
53533;SDS011;39421;53.204;6.568;2023-12-20T14:37:39;7.28;;;1.52;;